General Aviation Weather

Text Reports

Enter one or more of the following location identifiers separated by a space:

Zip Code, Four-Character ICAO or Three-Character IATA airport codes.

METAR - Aviation Routine Weather Report
KIGM - Kingman, Arizona
Updated at 4:51 AM GMT on November 23, 2014 (9:51 PM MST):
METAR KIGM 230451Z AUTO 11009KT 10SM CLR 08/M05 A2995 RMK AO2 SLP103 T00831050
TAF - Terminal Area Forecast
KIGM - Kingman, Arizona
Updated at 4:51 AM GMT on November 23, 2014 (9:51 PM MST):
No TAF is currently available for this location.
Decoded:
No decoded TAF is available.
PIREP - Pilot Weather Report
KIGM - Kingman, Arizona
Updated at 4:51 AM GMT on November 23, 2014 (9:51 PM MST):
No PIREP is currently available for this location.
AIRMET - Airmens Meteorological Information
KIGM - Kingman, Arizona
Updated at 4:51 AM GMT on November 23, 2014 (9:51 PM MST):
No AIRMET is currently available for this location.
SIGMET - Significant Meteorological Information
KIGM - Kingman, Arizona
Updated at 4:51 AM GMT on November 23, 2014 (9:51 PM MST):
No SIGMET is currently available for this location.
NOTAM - Notice to Airmen
KIGM - Kingman, Arizona
Updated at 4:51 AM GMT on November 23, 2014 (9:51 PM MST):
No NOTAM is currently available for this location.
Forecast Area
KIGM - Kingman, Arizona
Updated at 4:51 AM GMT on November 23, 2014 (9:51 PM MST):
No NOTAM is currently available for this location.
Aviation Weather Maps